Time;durP1;ratioP1;P1;durP2;ratioP2;P2;SDS_P1;SDS_P2;PMS_P1;PMS_P2;Temp;Humidity;BMP_temperature;BMP_pressure;BME280_temperature;BME280_humidity;BME280_pressure;Samples;Min_cycle;Max_cycle;Signal;HPM_P1;HPM_P2
2021/01/14 00:01:24;;;;;;;92.02;41.30;;;;;;;-0.33;73.83;95896.52;1722030;82;26457;-87
2021/01/14 00:03:52;;;;;;;42.43;17.23;;;;;;;-0.33;73.86;95896.52;1722270;82;25708;-87
2021/01/14 00:06:19;;;;;;;28.92;13.30;;;;;;;-0.36;73.85;95894.55;1722234;82;26877;-86
2021/01/14 00:08:47;;;;;;;23.38;12.28;;;;;;;-0.34;73.89;95890.89;1722237;81;26582;-87
2021/01/14 00:11:14;;;;;;;33.53;12.70;;;;;;;-0.34;73.90;95889.06;1722184;82;27505;-87
2021/01/14 00:13:42;;;;;;;25.17;12.43;;;;;;;-0.36;73.86;95886.59;1745638;81;25822;-86
2021/01/14 00:16:09;;;;;;;42.30;15.05;;;;;;;-0.31;73.90;95889.22;1728299;81;25340;-86
2021/01/14 00:18:37;;;;;;;44.50;15.55;;;;;;;-0.34;73.84;95885.59;1722203;81;25804;-87
2021/01/14 00:21:04;;;;;;;48.75;17.30;;;;;;;-0.36;73.84;95878.64;1722184;81;25811;-87
2021/01/14 00:23:32;;;;;;;38.75;15.55;;;;;;;-0.34;73.86;95869.69;1717140;83;27497;-87
2021/01/14 00:25:59;;;;;;;95.40;47.17;;;;;;;-0.38;73.89;95863.44;1716944;83;26225;-88
2021/01/14 00:28:27;;;;;;;61.92;28.30;;;;;;;-0.35;73.93;95866.20;1697211;83;25581;-88
2021/01/14 00:30:55;;;;;;;70.17;26.82;;;;;;;-0.31;73.93;95866.68;1717955;83;44687;-88
2021/01/14 00:33:22;;;;;;;100.15;28.17;;;;;;;-0.29;73.96;95864.17;1724616;81;25335;-87
2021/01/14 00:35:49;;;;;;;112.15;30.85;;;;;;;-0.26;73.98;95869.13;1722263;81;28547;-87
2021/01/14 00:38:17;;;;;;;76.95;24.35;;;;;;;-0.26;73.94;95866.97;1721984;81;26174;-88
2021/01/14 00:40:44;;;;;;;63.73;21.23;;;;;;;-0.26;73.94;95861.67;1722185;82;25689;-87
2021/01/14 00:43:12;;;;;;;87.40;35.65;;;;;;;-0.24;73.96;95859.66;1722133;82;26704;-85
2021/01/14 00:45:39;;;;;;;73.50;31.37;;;;;;;-0.22;73.96;95855.80;1722275;81;25806;-87
2021/01/14 00:48:08;;;;;;;103.25;32.00;;;;;;;-0.22;73.96;95857.63;1752957;81;27481;-88
2021/01/14 00:50:35;;;;;;;72.35;23.07;;;;;;;-0.21;73.91;95856.13;1751441;81;25761;-87
2021/01/14 00:53:02;;;;;;;58.40;19.57;;;;;;;-0.21;73.89;95851.31;1722190;82;25331;-87
2021/01/14 00:55:30;;;;;;;60.40;21.02;;;;;;;-0.22;73.90;95849.17;1732849;81;26801;-86
2021/01/14 00:57:57;;;;;;;59.85;20.72;;;;;;;-0.26;73.87;95854.53;1746682;80;25781;-88
2021/01/14 01:00:25;;;;;;;39.35;17.50;;;;;;;-0.25;73.94;95843.43;1727703;82;28567;-88
2021/01/14 01:02:54;;;;;;;50.70;23.35;;;;;;;-0.24;73.99;95843.75;1727483;81;25780;-87
2021/01/14 01:05:22;;;;;;;67.58;24.12;;;;;;;-0.21;73.95;95840.71;1727716;81;25729;-86
2021/01/14 01:07:57;;;;;;;61.28;20.90;;;;;;;-0.23;73.94;95843.54;1737448;80;25907;-85
2021/01/14 01:10:26;;;;;;;47.23;17.80;;;;;;;-0.23;73.97;95837.41;1745530;80;25837;-87
2021/01/14 01:12:56;;;;;;;52.53;19.95;;;;;;;-0.21;73.98;95838.06;1727539;82;27571;-88
2021/01/14 01:15:24;;;;;;;39.40;16.32;;;;;;;-0.22;73.99;95830.61;1727506;82;25506;-87
2021/01/14 01:17:52;;;;;;;25.10;13.70;;;;;;;-0.21;74.04;95835.41;1727700;82;25856;-85
2021/01/14 01:20:20;;;;;;;35.88;16.23;;;;;;;-0.20;74.05;95831.25;1727641;82;26775;-87
2021/01/14 01:22:47;;;;;;;43.83;18.05;;;;;;;-0.18;74.05;95827.09;1727588;82;25867;-87
2021/01/14 01:25:14;;;;;;;47.13;19.17;;;;;;;-0.18;74.03;95825.77;1727689;82;27511;-87
2021/01/14 01:27:42;;;;;;;52.15;19.10;;;;;;;-0.19;74.00;95820.14;1727522;82;26129;-87
2021/01/14 01:30:11;;;;;;;25.80;12.68;;;;;;;-0.19;73.96;95814.34;1727616;82;25654;-86
2021/01/14 01:32:38;;;;;;;21.23;12.20;;;;;;;-0.19;73.96;95812.19;1727636;82;25924;-87
2021/01/14 01:35:08;;;;;;;19.35;10.95;;;;;;;-0.18;73.89;95813.84;1727670;81;25755;-87
2021/01/14 01:37:35;;;;;;;26.17;13.38;;;;;;;-0.20;73.85;95811.36;1727659;82;27455;-86
2021/01/14 01:40:04;;;;;;;24.63;11.78;;;;;;;-0.21;73.85;95807.06;1727104;82;26175;-87
2021/01/14 01:42:32;;;;;;;36.17;14.50;;;;;;;-0.22;73.75;95808.56;1727239;82;25780;-87
2021/01/14 01:45:00;;;;;;;47.50;17.40;;;;;;;-0.26;73.65;95803.33;1736664;82;25956;-85
2021/01/14 01:47:33;;;;;;;56.30;19.95;;;;;;;-0.28;73.63;95798.70;1728440;81;25732;-86
2021/01/14 01:50:08;;;;;;;54.83;20.10;;;;;;;-0.30;73.62;95800.21;1727007;80;27507;-86
2021/01/14 01:52:35;;;;;;;48.73;20.40;;;;;;;-0.32;73.52;95801.39;1724522;82;25840;-87
2021/01/14 01:55:05;;;;;;;48.40;19.73;;;;;;;-0.40;73.44;95795.69;1724453;82;25739;-86
2021/01/14 01:57:34;;;;;;;40.12;16.60;;;;;;;-0.44;73.42;95790.42;1721119;81;26354;-87
2021/01/14 02:00:04;;;;;;;23.95;12.00;;;;;;;-0.51;73.54;95793.00;1719135;81;25713;-86
2021/01/14 02:02:31;;;;;;;26.12;11.78;;;;;;;-0.55;73.54;95790.38;1719075;81;27440;-85
2021/01/14 02:05:00;;;;;;;23.07;12.25;;;;;;;-0.59;73.54;95785.11;1719091;81;26153;-85
2021/01/14 02:07:58;;;;;;;21.05;11.53;;;;;;;-0.62;73.57;95784.67;1719305;81;25745;-86
2021/01/14 02:10:35;;;;;;;23.52;11.45;;;;;;;-0.69;73.56;95776.61;1719191;81;26036;-85
2021/01/14 02:13:20;;;;;;;22.45;11.68;;;;;;;-0.75;73.42;95780.00;1719411;83;25853;-85
2021/01/14 02:15:49;;;;;;;24.40;11.88;;;;;;;-0.83;73.37;95776.08;1719209;81;26282;-86
2021/01/14 02:18:19;;;;;;;24.77;11.93;;;;;;;-0.88;73.40;95773.17;1719199;81;25757;-86
2021/01/14 02:20:51;;;;;;;26.10;12.70;;;;;;;-0.87;73.46;95776.14;1719326;82;25813;-86
2021/01/14 02:23:53;;;;;;;30.05;15.18;;;;;;;-0.87;73.41;95776.14;1719231;81;26851;-85
2021/01/14 02:26:28;;;;;;;32.60;17.02;;;;;;;-0.89;73.48;95771.52;1719311;82;25704;-85
2021/01/14 02:28:56;;;;;;;29.70;15.55;;;;;;;-0.94;73.50;95780.49;1719191;83;27582;-86
2021/01/14 02:31:25;;;;;;;32.08;14.75;;;;;;;-0.99;73.50;95778.91;1719122;81;26374;-86
2021/01/14 02:33:54;;;;;;;33.58;14.93;;;;;;;-0.99;73.53;95780.23;1719176;82;25780;-85
2021/01/14 02:36:27;;;;;;;39.08;16.40;;;;;;;-1.00;73.57;95775.93;1719257;81;25874;-86
2021/01/14 02:38:55;;;;;;;29.32;14.55;;;;;;;-1.04;73.62;95775.45;1725637;81;26067;-86
2021/01/14 02:41:23;;;;;;;30.02;15.38;;;;;;;-1.09;73.60;95769.36;1719525;81;27432;-86
2021/01/14 02:43:51;;;;;;;24.57;14.47;;;;;;;-1.18;73.57;95767.80;1719177;81;25413;-85
2021/01/14 02:46:20;;;;;;;21.75;12.53;;;;;;;-1.28;73.70;95769.87;1719229;81;25724;-85
2021/01/14 02:49:05;;;;;;;19.87;11.88;;;;;;;-1.25;73.85;95773.98;1689065;83;25861;-85
2021/01/14 02:51:43;;;;;;;24.25;13.05;;;;;;;-1.30;73.77;95769.72;1719358;81;25802;-86
2021/01/14 02:54:11;;;;;;;30.15;13.68;;;;;;;-1.36;73.88;95771.27;1719270;81;27504;-85
2021/01/14 02:56:39;;;;;;;31.05;16.25;;;;;;;-1.37;73.96;95770.94;1716626;82;26318;-86
2021/01/14 02:59:09;;;;;;;37.83;18.17;;;;;;;-1.35;74.02;95770.27;1690743;84;25866;-86
2021/01/14 03:01:36;;;;;;;32.23;17.02;;;;;;;-1.32;74.04;95769.89;1695305;84;26028;-85
2021/01/14 03:04:04;;;;;;;46.58;20.65;;;;;;;-1.32;73.95;95766.42;1695413;84;25928;-86
2021/01/14 03:06:31;;;;;;;45.95;20.35;;;;;;;-1.38;73.90;95764.50;1695228;83;27554;-85
2021/01/14 03:08:59;;;;;;;43.70;19.75;;;;;;;-1.40;73.97;95760.70;1695217;83;25804;-85
2021/01/14 03:11:31;;;;;;;35.73;18.00;;;;;;;-1.39;73.96;95761.02;1695315;83;25843;-86
2021/01/14 03:13:59;;;;;;;47.13;20.50;;;;;;;-1.36;73.99;95756.70;1695447;84;25791;-86
2021/01/14 03:16:27;;;;;;;77.62;30.97;;;;;;;-1.35;73.90;95754.39;1695246;83;26083;-86
2021/01/14 03:18:54;;;;;;;38.40;18.55;;;;;;;-1.33;73.88;95757.69;1695287;84;28491;-85
2021/01/14 03:21:23;;;;;;;39.20;19.40;;;;;;;-1.34;73.84;95754.71;1695145;84;25702;-85
2021/01/14 03:23:52;;;;;;;39.25;20.12;;;;;;;-1.38;73.76;95749.44;1695221;84;25707;-85
2021/01/14 03:26:21;;;;;;;43.63;19.75;;;;;;;-1.43;73.72;95747.81;1695338;83;25816;-85
2021/01/14 03:28:50;;;;;;;69.35;28.38;;;;;;;-1.45;73.82;95747.20;1695391;84;25800;-85
2021/01/14 03:31:18;;;;;;;40.35;19.85;;;;;;;-1.42;73.86;95745.49;1695301;84;28497;-86
2021/01/14 03:33:47;;;;;;;36.48;17.57;;;;;;;-1.44;73.85;95748.81;1695216;83;26121;-86
2021/01/14 03:36:19;;;;;;;32.55;16.75;;;;;;;-1.52;73.79;95744.41;1695290;84;25786;-86
2021/01/14 03:38:48;;;;;;;34.48;18.90;;;;;;;-1.58;73.81;95741.67;1695446;84;25896;-86
2021/01/14 03:41:19;;;;;;;31.55;16.87;;;;;;;-1.65;73.89;95742.86;1695326;84;25865;-86
2021/01/14 03:43:47;;;;;;;27.82;15.03;;;;;;;-1.63;73.99;95733.42;1695366;83;28567;-85
2021/01/14 03:46:17;;;;;;;20.52;10.45;;;;;;;-1.60;74.09;95739.69;1695231;83;26240;-85
2021/01/14 03:48:46;;;;;;;20.95;12.47;;;;;;;-1.69;74.10;95739.44;1695315;83;25785;-85
2021/01/14 03:51:22;;;;;;;24.27;11.88;;;;;;;-1.69;74.21;95736.79;1695262;83;26701;-86
2021/01/14 03:53:51;;;;;;;28.55;12.88;;;;;;;-1.65;74.32;95741.53;1695383;84;25729;-85
2021/01/14 03:56:20;;;;;;;35.33;16.90;;;;;;;-1.63;74.30;95733.42;1695264;84;28422;-85
2021/01/14 03:58:47;;;;;;;33.73;17.67;;;;;;;-1.59;74.32;95738.70;1715735;83;25748;-85
2021/01/14 04:01:15;;;;;;;39.48;19.20;;;;;;;-1.57;74.29;95742.79;1720193;83;25736;-85
2021/01/14 04:03:44;;;;;;;33.58;16.75;;;;;;;-1.52;74.29;95739.63;1720282;83;25901;-86
2021/01/14 04:06:12;;;;;;;25.80;13.62;;;;;;;-1.48;74.27;95746.22;1720209;83;25831;-85
2021/01/14 04:08:40;;;;;;;28.25;14.05;;;;;;;-1.45;74.27;95745.34;1720230;83;27593;-85
2021/01/14 04:11:12;;;;;;;29.77;14.70;;;;;;;-1.40;74.29;95741.34;1720152;83;25777;-85
2021/01/14 04:13:41;;;;;;;28.12;16.02;;;;;;;-1.39;74.24;95743.82;1720436;83;25716;-85
2021/01/14 04:16:13;;;;;;;34.13;16.52;;;;;;;-1.49;74.10;95740.59;1720220;83;26644;-85
2021/01/14 04:18:40;;;;;;;;;;;;;;;-1.48;74.22;95740.42;1722903;83;25815;-85
2021/01/14 04:21:08;;;;;;;40.95;18.60;;;;;;;-1.45;74.27;95745.34;1720125;82;27434;-86
2021/01/14 04:23:35;;;;;;;25.95;13.58;;;;;;;-1.44;74.30;95744.84;1719996;83;25850;-85
2021/01/14 04:26:02;;;;;;;20.65;11.28;;;;;;;-1.41;74.32;95745.81;1720099;83;25702;-85
2021/01/14 04:28:29;;;;;;;18.75;11.12;;;;;;;-1.39;74.35;95746.97;1720096;83;25862;-85
2021/01/14 04:30:57;;;;;;;23.07;10.93;;;;;;;-1.33;74.36;95748.92;1720236;83;25775;-85
2021/01/14 04:33:24;;;;;;;20.32;11.15;;;;;;;-1.30;74.39;95744.56;1720232;83;27482;-85
2021/01/14 04:35:58;;;;;;;17.17;9.60;;;;;;;-1.29;74.32;95745.72;1720003;83;26672;-85
2021/01/14 04:38:28;;;;;;;25.68;12.18;;;;;;;-1.31;74.28;95746.89;1720227;82;25705;-85
2021/01/14 04:41:03;;;;;;;21.52;11.83;;;;;;;-1.31;74.27;95748.22;1720023;83;25676;-85
2021/01/14 04:43:33;;;;;;;19.57;11.85;;;;;;;-1.34;74.33;95741.48;1719940;82;25747;-84
2021/01/14 04:46:07;;;;;;;29.87;15.60;;;;;;;-1.38;74.37;95744.15;1719957;82;27495;-84
2021/01/14 04:48:48;;;;;;;27.77;15.15;;;;;;;-1.36;74.41;95746.12;1719999;82;26103;-85
2021/01/14 04:51:20;;;;;;;32.75;15.65;;;;;;;-1.36;74.43;95738.68;1720123;83;25721;-86
2021/01/14 04:53:50;;;;;;;23.65;13.88;;;;;;;-1.35;74.52;95741.16;1720236;83;26036;-85
2021/01/14 04:56:19;;;;;;;28.57;15.60;;;;;;;-1.30;74.60;95743.25;1720068;83;25370;-85
2021/01/14 04:58:49;;;;;;;34.60;18.20;;;;;;;-1.26;74.64;95742.72;1724881;82;27561;-85
2021/01/14 05:01:22;;;;;;;39.63;20.32;;;;;;;-1.22;74.63;95743.20;1727391;83;25684;-85
2021/01/14 05:03:52;;;;;;;36.53;19.95;;;;;;;-1.22;74.65;95744.52;1727491;82;25870;-86
2021/01/14 05:06:25;;;;;;;130.43;52.85;;;;;;;-1.26;74.66;95745.37;1727421;82;25895;-84
2021/01/14 05:09:04;;;;;;;91.80;39.48;;;;;;;-1.24;74.76;95743.38;1727431;82;25802;-85
2021/01/14 05:11:42;;;;;;;73.60;33.33;;;;;;;-1.20;74.82;95739.34;1727385;82;27502;-85
2021/01/14 05:14:09;;;;;;;72.92;34.18;;;;;;;-1.18;74.79;95748.44;1727482;83;25861;-85
2021/01/14 05:16:37;;;;;;;90.45;42.20;;;;;;;-1.19;74.78;95737.52;1727419;83;25813;-85
2021/01/14 05:19:04;;;;;;;82.42;36.25;;;;;;;-1.22;74.78;95739.23;1727482;82;25897;-85
2021/01/14 05:21:34;;;;;;;83.82;34.78;;;;;;;-1.26;74.83;95745.37;1727430;83;25814;-85
2021/01/14 05:24:14;;;;;;;86.12;37.88;;;;;;;-1.33;74.80;95743.62;1727424;82;27559;-85
2021/01/14 05:26:46;;;;;;;91.85;39.33;;;;;;;-1.39;74.89;95746.97;1727326;83;25799;-85
2021/01/14 05:29:21;;;;;;;104.65;40.35;;;;;;;-1.48;74.96;95749.69;1727551;82;25722;-85
2021/01/14 05:31:50;;;;;;;90.47;35.45;;;;;;;-1.51;75.04;95742.59;1727414;82;26777;-85
2021/01/14 05:34:19;;;;;;;87.08;35.98;;;;;;;-1.49;75.13;95748.04;1727488;83;25844;-85
2021/01/14 05:37:02;;;;;;;72.15;30.27;;;;;;;-1.51;75.12;95744.73;1727438;82;27500;-84
2021/01/14 05:39:28;;;;;;;57.38;25.00;;;;;;;-1.46;75.21;95745.55;1652114;84;25977;-85
2021/01/14 05:41:57;;;;;;;55.08;26.52;;;;;;;-1.47;75.23;95745.22;1665383;86;25837;-84
2021/01/14 05:44:42;;;;;;;54.85;27.17;;;;;;;-1.46;75.25;95746.87;1689909;83;26809;-85
2021/01/14 05:47:27;;;;;;;58.20;28.30;;;;;;;-1.42;75.24;95752.11;1689539;83;25868;-84
2021/01/14 05:50:02;;;;;;;90.90;40.28;;;;;;;-1.40;75.23;95752.76;1689938;84;27574;-85
2021/01/14 05:52:31;;;;;;;88.85;40.12;;;;;;;-1.35;75.22;95754.39;1689724;83;25773;-85
2021/01/14 05:55:09;;;;;;;62.62;31.50;;;;;;;-1.33;75.24;95762.16;1689849;83;25828;-85
2021/01/14 05:57:39;;;;;;;56.95;27.80;;;;;;;-1.30;75.22;95759.95;1689400;83;25835;-84
2021/01/14 06:00:13;;;;;;;62.27;29.30;;;;;;;-1.24;75.25;95765.88;1676861;83;25910;-85
2021/01/14 06:02:42;;;;;;;58.15;28.20;;;;;;;-1.21;75.21;95764.70;1676900;83;27515;-84
2021/01/14 06:05:32;;;;;;;59.15;28.15;;;;;;;-1.19;75.19;95767.47;1676757;83;25774;-84
2021/01/14 06:08:02;;;;;;;74.85;30.75;;;;;;;-1.20;75.14;95764.50;1676787;83;25768;-84
2021/01/14 06:10:34;;;;;;;106.27;40.48;;;;;;;-1.20;75.20;95763.17;1676863;85;25970;-85
2021/01/14 06:13:02;;;;;;;;;;;;;;;-1.16;75.20;95764.47;1679402;83;25787;-85
2021/01/14 06:15:30;;;;;;;72.67;33.95;;;;;;;-1.11;75.20;95772.72;1676796;83;27558;-84
2021/01/14 06:18:01;;;;;;;74.65;33.58;;;;;;;-1.09;75.18;95768.03;1676752;83;25817;-85
2021/01/14 06:20:28;;;;;;;75.67;33.63;;;;;;;-1.07;75.14;95776.30;1677008;83;25787;-84
2021/01/14 06:23:00;;;;;;;71.40;33.88;;;;;;;-1.06;75.27;95774.80;1676501;83;25927;-84
2021/01/14 06:25:27;;;;;;;69.07;33.42;;;;;;;-1.05;75.12;95774.30;1676703;85;25857;-84
2021/01/14 06:27:55;;;;;;;69.85;34.67;;;;;;;-1.04;75.15;95779.93;1676482;85;28525;-84
2021/01/14 06:30:23;;;;;;;63.13;32.15;;;;;;;-1.02;75.21;95785.87;1676328;83;26120;-84
2021/01/14 06:33:04;;;;;;;74.15;35.92;;;;;;;-0.98;75.22;95782.70;1676716;83;25765;-85
2021/01/14 06:35:34;;;;;;;78.17;36.90;;;;;;;-0.95;75.20;95786.79;1676834;83;25834;-85
2021/01/14 06:38:05;;;;;;;75.52;36.23;;;;;;;-0.91;75.19;95784.11;1676865;85;25854;-84
2021/01/14 06:40:36;;;;;;;73.20;35.95;;;;;;;-0.89;75.19;95792.21;1676770;85;27619;-85
2021/01/14 06:43:06;;;;;;;71.10;34.53;;;;;;;-0.84;75.16;95794.30;1676410;83;25841;-85
2021/01/14 06:45:48;;;;;;;68.30;33.85;;;;;;;-0.86;75.10;95799.80;1668314;83;26471;-84
2021/01/14 06:48:20;;;;;;;75.95;37.03;;;;;;;-0.86;75.11;95797.16;1701298;83;25781;-84
2021/01/14 06:50:49;;;;;;;99.53;43.07;;;;;;;-0.89;75.11;95805.45;1701313;83;25759;-84
2021/01/14 06:53:21;;;;;;;97.67;44.00;;;;;;;-0.89;75.14;95813.40;1698246;83;27732;-84
2021/01/14 06:55:49;;;;;;;112.88;50.03;;;;;;;-0.86;75.17;95817.52;1702418;83;25854;-86
2021/01/14 06:58:17;;;;;;;151.55;61.10;;;;;;;-0.92;75.14;95817.73;1677714;83;25701;-85
2021/01/14 07:00:50;;;;;;;170.07;66.40;;;;;;;-0.95;75.13;95822.55;1684412;85;26866;-83
2021/01/14 07:03:20;;;;;;;159.25;67.08;;;;;;;-0.95;75.21;95821.22;1683777;83;26260;-84
2021/01/14 07:05:59;;;;;;;165.00;67.12;;;;;;;-1.01;75.17;95824.60;1688984;83;28567;-85
2021/01/14 07:08:42;;;;;;;172.37;69.82;;;;;;;-1.05;75.23;95829.42;1700067;83;25727;-84
2021/01/14 07:11:18;;;;;;;153.70;61.28;;;;;;;-1.11;75.27;95832.80;1687551;83;26432;-84
2021/01/14 07:13:50;;;;;;;105.87;46.80;;;;;;;-1.16;75.37;95839.11;1686946;83;26750;-84
2021/01/14 07:16:21;;;;;;;113.30;50.00;;;;;;;-1.14;75.50;95838.44;1687470;83;25393;-85
2021/01/14 07:18:50;;;;;;;120.50;50.45;;;;;;;-1.11;75.51;95844.71;1687368;83;27517;-85
2021/01/14 07:21:41;;;;;;;107.32;48.28;;;;;;;-1.07;75.57;95849.13;1688542;83;26108;-85
2021/01/14 07:24:22;;;;;;;95.15;45.80;;;;;;;-1.04;75.58;95848.28;1675300;83;26603;-84
2021/01/14 07:26:59;;;;;;;99.87;51.13;;;;;;;-1.01;75.62;95856.38;1690773;83;26634;-85
2021/01/14 07:29:28;;;;;;;114.03;56.77;;;;;;;-1.07;75.51;95861.05;1687784;83;25891;-85
2021/01/14 07:31:58;;;;;;;100.87;50.73;;;;;;;-1.11;75.58;95861.92;1690807;83;27518;-85
2021/01/14 07:34:44;;;;;;;102.82;53.00;;;;;;;-1.08;75.71;95864.20;1688508;83;25861;-85
2021/01/14 07:37:18;;;;;;;104.97;51.88;;;;;;;-1.05;75.73;95876.27;1690668;83;25816;-84
2021/01/14 07:39:59;;;;;;;113.87;61.30;;;;;;;-1.00;75.79;95877.39;1689166;83;25816;-85
2021/01/14 07:42:30;;;;;;;103.05;58.17;;;;;;;-0.93;75.79;95881.47;1690870;83;25763;-85
2021/01/14 07:45:07;;;;;;;105.58;62.65;;;;;;;-0.88;75.71;95885.25;1684539;83;27447;-85
2021/01/14 07:47:39;;;;;;;111.52;63.63;;;;;;;-0.86;75.59;95883.75;1690245;83;25853;-82
2021/01/14 07:50:22;;;;;;;114.17;59.63;;;;;;;-0.91;75.50;95887.42;1687353;83;26476;-85
2021/01/14 07:52:56;;;;;;;130.12;66.60;;;;;;;-0.96;75.44;95882.64;1682610;83;26776;-83
2021/01/14 07:55:35;;;;;;;132.63;65.97;;;;;;;-0.92;75.53;95885.77;1687395;83;26103;-84
2021/01/14 07:58:20;;;;;;;137.68;65.92;;;;;;;-0.96;75.49;95891.09;1684162;83;27726;-85
2021/01/14 08:01:08;;;;;;;127.82;66.72;;;;;;;-1.00;75.45;95899.08;1684178;83;25816;-84
2021/01/14 08:03:43;;;;;;;131.65;65.03;;;;;;;-1.04;75.51;95906.55;1684248;84;26225;-85
2021/01/14 08:06:22;;;;;;;121.10;63.28;;;;;;;-1.03;75.63;95908.20;1684125;83;25900;-85
2021/01/14 08:09:10;;;;;;;121.75;67.53;;;;;;;-0.98;75.71;95910.33;1684425;83;25845;-85
2021/01/14 08:11:49;;;;;;;91.45;52.27;;;;;;;-0.96;75.75;95914.92;1684307;83;28404;-85
2021/01/14 08:14:21;;;;;;;72.25;44.83;;;;;;;-0.89;75.82;95922.01;1684337;83;26223;-85
2021/01/14 08:16:54;;;;;;;57.85;37.65;;;;;;;-0.85;75.84;95926.47;1684339;83;25868;-86
2021/01/14 08:19:33;;;;;;;51.42;33.30;;;;;;;-0.81;75.83;95927.23;1684315;84;25897;-85
2021/01/14 08:22:12;;;;;;;48.48;30.90;;;;;;;-0.78;75.79;95922.92;1684310;83;25829;-85
2021/01/14 08:24:58;;;;;;;39.35;25.52;;;;;;;-0.72;75.79;95930.64;1684347;83;27512;-85
2021/01/14 08:27:30;;;;;;;49.15;29.05;;;;;;;-0.70;75.76;95936.59;1684121;83;25754;-83
2021/01/14 08:30:01;;;;;;;;;;;;;;;-0.67;75.77;95938.07;1686776;83;25664;-83
2021/01/14 08:32:38;;;;;;;47.33;26.23;;;;;;;-0.65;75.81;95943.53;1684263;83;26749;-85
2021/01/14 08:35:09;;;;;;;38.33;21.80;;;;;;;-0.67;75.72;95942.05;1684271;83;25835;-85
2021/01/14 08:37:41;;;;;;;42.93;26.43;;;;;;;-0.78;75.57;95948.59;1684502;83;27588;-86
2021/01/14 08:40:16;;;;;;;41.28;25.27;;;;;;;-0.87;75.69;95952.30;1675796;83;26149;-86
2021/01/14 08:42:47;;;;;;;35.15;22.42;;;;;;;-0.90;75.85;95956.13;1684334;83;25703;-84
2021/01/14 08:45:19;;;;;;;33.38;20.97;;;;;;;-0.87;76.01;95962.40;1683480;83;26835;-86
2021/01/14 08:47:55;;;;;;;;;;;;;;;-0.80;76.13;95962.01;1694790;83;26276;-85
2021/01/14 08:50:43;;;;;;;37.98;22.65;;;;;;;-0.73;76.17;95972.74;1689655;83;28410;-84
2021/01/14 08:53:22;;;;;;;33.95;19.62;;;;;;;-0.76;76.10;95979.71;1676354;84;25882;-86
2021/01/14 08:56:17;;;;;;;32.45;19.67;;;;;;;-0.75;76.12;95982.69;1676437;83;25716;-85
2021/01/14 08:58:48;;;;;;;34.98;20.77;;;;;;;-0.69;76.13;95989.92;1678003;84;25999;-84
2021/01/14 09:01:27;;;;;;;35.90;20.12;;;;;;;-0.64;76.15;95990.23;1673175;83;26082;-85
2021/01/14 09:03:57;;;;;;;30.12;19.50;;;;;;;-0.59;76.17;95989.18;1676143;83;27492;-85
2021/01/14 09:06:37;;;;;;;28.83;18.05;;;;;;;-0.55;76.12;95993.14;1671244;83;25774;-85
2021/01/14 09:09:12;;;;;;;34.92;18.05;;;;;;;-0.54;76.05;96002.73;1709839;83;25943;-83
2021/01/14 09:11:40;;;;;;;31.48;18.77;;;;;;;-0.51;76.05;95999.75;1707242;83;25937;-85
2021/01/14 09:14:16;;;;;;;30.40;20.43;;;;;;;-0.46;76.08;96007.97;1709057;83;26319;-86
2021/01/14 09:16:46;;;;;;;32.80;19.57;;;;;;;-0.46;76.00;96009.30;1707693;83;27554;-86
2021/01/14 09:19:20;;;;;;;32.67;18.30;;;;;;;-0.47;75.97;96012.13;1709816;83;25772;-85
2021/01/14 09:21:48;;;;;;;36.90;17.85;;;;;;;-0.45;76.02;96022.05;1708214;83;25840;-86
2021/01/14 09:24:17;;;;;;;32.75;18.67;;;;;;;-0.41;76.05;96029.48;1707982;83;25830;-85
2021/01/14 09:26:51;;;;;;;40.30;24.43;;;;;;;-0.36;76.10;96028.94;1710088;83;25897;-84
2021/01/14 09:29:20;;;;;;;79.20;39.95;;;;;;;-0.30;76.04;96028.74;1707512;83;28631;-85
2021/01/14 09:31:48;;;;;;;148.80;67.67;;;;;;;-0.28;75.92;96034.70;1709957;83;25780;-85
2021/01/14 09:34:16;;;;;;;133.07;60.38;;;;;;;-0.32;75.88;96028.09;1705471;83;25834;-85
2021/01/14 09:36:44;;;;;;;94.55;47.62;;;;;;;-0.34;75.87;96040.70;1710204;83;25833;-85
2021/01/14 09:39:17;;;;;;;60.28;33.67;;;;;;;-0.34;75.83;96044.67;1702028;83;25895;-85
2021/01/14 09:41:45;;;;;;;69.50;40.80;;;;;;;-0.46;75.70;96043.77;1691393;83;27806;-86
2021/01/14 09:44:16;;;;;;;47.50;29.42;;;;;;;-0.48;75.87;96046.26;1705510;83;26132;-85
2021/01/14 09:46:46;;;;;;;43.33;26.87;;;;;;;-0.42;76.03;96054.34;1710590;83;25826;-85
2021/01/14 09:49:20;;;;;;;31.23;19.98;;;;;;;-0.38;76.00;96054.83;1705780;83;25797;-85
2021/01/14 09:51:54;;;;;;;38.38;23.47;;;;;;;-0.48;75.72;96055.03;1710459;83;25852;-84
2021/01/14 09:54:23;;;;;;;28.30;16.82;;;;;;;-0.53;75.93;96052.11;1705657;83;27558;-85
2021/01/14 09:56:56;;;;;;;71.82;31.77;;;;;;;-0.55;75.88;96055.42;1700219;83;25788;-85
2021/01/14 10:02:30;;;;;;;75.17;40.30;;;;;;;-0.53;76.01;96057.41;1856847;76;38867;-87
2021/01/14 10:05:15;;;;;;;36.50;21.27;;;;;;;-0.44;75.80;96060.82;1821770;77;25798;-86
2021/01/14 10:07:49;;;;;;;46.37;28.23;;;;;;;-0.47;75.78;96063.31;1796293;77;27698;-86
2021/01/14 10:10:19;;;;;;;34.80;20.57;;;;;;;-0.41;76.15;96069.25;1817003;77;25750;-86
2021/01/14 10:12:55;;;;;;;26.30;15.88;;;;;;;-0.35;76.26;96066.38;1806583;77;25813;-86
2021/01/14 10:15:22;;;;;;;31.68;18.42;;;;;;;-0.30;76.31;96071.17;1821667;77;26378;-85
2021/01/14 10:17:50;;;;;;;27.42;19.17;;;;;;;-0.24;76.28;96069.95;1817592;77;25732;-86
2021/01/14 10:20:18;;;;;;;27.85;17.75;;;;;;;-0.21;76.31;96071.42;1799344;77;27482;-87
2021/01/14 10:22:55;;;;;;;23.83;14.55;;;;;;;-0.17;76.38;96068.76;1818744;77;26375;-85
2021/01/14 10:25:24;;;;;;;23.90;13.78;;;;;;;-0.18;76.26;96077.71;1818708;77;25296;-85
2021/01/14 10:28:01;;;;;;;24.98;13.08;;;;;;;-0.18;76.26;96069.26;1808578;77;25839;-87
2021/01/14 10:30:30;;;;;;;104.85;37.90;;;;;;;-0.20;76.22;96075.73;1812117;77;25709;-84
2021/01/14 10:33:04;;;;;;;199.38;79.55;;;;;;;-0.18;76.33;96081.69;1821702;77;28402;-84
2021/01/14 10:35:34;;;;;;;66.25;36.80;;;;;;;-0.15;76.41;96081.34;1848427;77;26405;-85
2021/01/14 10:38:11;;;;;;;38.85;22.98;;;;;;;-0.18;76.32;96092.30;1828710;77;26417;-84
2021/01/14 10:40:45;;;;;;;36.68;19.37;;;;;;;-0.19;76.33;96086.17;1826564;77;26397;-84
2021/01/14 10:43:15;;;;;;;30.88;18.98;;;;;;;-0.18;76.37;96085.67;1836368;77;25782;-85
2021/01/14 10:45:44;;;;;;;33.20;20.32;;;;;;;-0.17;76.40;96089.48;1839935;76;28714;-84
2021/01/14 10:48:17;;;;;;;40.25;23.00;;;;;;;-0.09;76.52;96100.02;1831646;77;26115;-84
2021/01/14 10:50:56;;;;;;;37.85;22.35;;;;;;;-0.04;76.54;96099.50;1836277;77;25709;-84
2021/01/14 10:53:37;;;;;;;29.10;18.12;;;;;;;0.02;76.47;96093.47;1809690;77;26213;-83
2021/01/14 10:56:11;;;;;;;27.17;16.60;;;;;;;-0.02;76.33;96100.15;1814973;77;25761;-84
2021/01/14 10:58:40;;;;;;;24.45;14.83;;;;;;;0.03;76.46;96104.41;1829758;77;27717;-83
2021/01/14 11:01:19;;;;;;;22.82;14.83;;;;;;;0.01;76.25;96105.08;1823432;77;25781;-83
2021/01/14 11:03:48;;;;;;;23.92;14.95;;;;;;;-0.03;76.23;96107.78;1775297;79;25760;-83
2021/01/14 11:06:33;;;;;;;24.82;14.55;;;;;;;-0.02;76.31;96110.27;1773224;79;25785;-83
2021/01/14 11:09:04;;;;;;;23.22;14.03;;;;;;;-0.07;76.17;96103.82;1779555;79;26002;-84
2021/01/14 11:11:33;;;;;;;27.30;15.90;;;;;;;-0.10;76.23;96119.58;1791348;79;27496;-83
2021/01/14 11:14:00;;;;;;;26.77;16.30;;;;;;;-0.10;76.27;96118.75;1759506;81;25816;-84
2021/01/14 11:16:28;;;;;;;34.30;18.32;;;;;;;-0.10;76.26;96124.06;1763140;81;25897;-84
2021/01/14 11:18:58;;;;;;;30.77;17.35;;;;;;;-0.11;76.30;96118.43;1758262;79;26206;-84
2021/01/14 11:21:33;;;;;;;33.67;18.27;;;;;;;-0.08;76.37;96122.06;1758463;81;25984;-84
2021/01/14 11:24:03;;;;;;;39.88;23.30;;;;;;;-0.11;76.28;96126.39;1741905;81;27682;-85
2021/01/14 11:26:31;;;;;;;34.43;18.85;;;;;;;-0.08;76.40;96123.39;1729761;82;25712;-85
2021/01/14 11:28:58;;;;;;;27.77;16.02;;;;;;;-0.01;76.48;96125.67;1745670;81;25720;-85
2021/01/14 11:31:27;;;;;;;24.87;15.05;;;;;;;0.06;76.52;96129.27;1756230;81;25723;-85
2021/01/14 11:33:56;;;;;;;26.62;15.45;;;;;;;0.04;76.42;96133.91;1756190;81;25803;-84
2021/01/14 11:36:24;;;;;;;28.77;15.15;;;;;;;0.05;76.42;96137.39;1750989;81;27500;-84
2021/01/14 11:38:52;;;;;;;27.05;16.00;;;;;;;0.06;76.41;96134.56;1749378;81;25713;-84
2021/01/14 11:41:25;;;;;;;29.27;17.45;;;;;;;0.07;76.36;96138.05;1745816;81;26155;-85